createdAt,value
2022-12-31T00:01:19.389Z,49.75
2022-12-31T00:03:20.805Z,49.87
2022-12-31T00:05:22.743Z,50.13
2022-12-31T00:07:24.054Z,50.84
2022-12-31T00:09:25.362Z,51.08
2022-12-31T00:11:26.700Z,51.35
2022-12-31T00:13:27.999Z,51.13
2022-12-31T00:15:29.295Z,51.67
2022-12-31T00:17:30.805Z,51.49
2022-12-31T00:19:32.118Z,51.72
2022-12-31T00:21:33.443Z,51.84
2022-12-31T00:23:34.760Z,52.43
2022-12-31T00:25:36.346Z,52.25
2022-12-31T00:27:37.636Z,52.73
2022-12-31T00:29:38.934Z,52.86
2022-12-31T00:31:40.331Z,52.99
2022-12-31T00:33:41.623Z,52.52
2022-12-31T00:35:42.947Z,53.30
2022-12-31T00:37:44.251Z,53.10
2022-12-31T00:39:45.551Z,53.40
2022-12-31T00:41:46.893Z,53.50
2022-12-31T00:43:48.192Z,53.14
2022-12-31T00:45:49.548Z,53.73
2022-12-31T00:47:50.880Z,53.75
2022-12-31T00:49:52.220Z,53.98
2022-12-31T00:51:53.558Z,54.24
2022-12-31T00:53:54.889Z,54.17
2022-12-31T00:55:56.191Z,53.75
2022-12-31T00:57:57.527Z,54.03
2022-12-31T00:59:58.826Z,54.35
2022-12-31T01:02:00.249Z,54.43
2022-12-31T01:04:01.647Z,54.92
2022-12-31T01:06:02.955Z,54.70
2022-12-31T01:08:04.289Z,55.22
2022-12-31T01:10:05.628Z,55.25
2022-12-31T01:12:06.922Z,55.64
2022-12-31T01:14:08.253Z,55.41
2022-12-31T01:16:09.680Z,55.91
2022-12-31T01:18:11.048Z,55.78
2022-12-31T01:20:12.388Z,56.04
2022-12-31T01:22:13.686Z,56.10
2022-12-31T01:24:14.989Z,56.57
2022-12-31T01:26:16.380Z,55.80
2022-12-31T01:28:17.687Z,56.15
2022-12-31T01:30:19.027Z,56.60
2022-12-31T01:32:20.323Z,56.32
2022-12-31T01:34:21.660Z,56.79
2022-12-31T01:36:25.886Z,56.86
2022-12-31T01:38:27.684Z,56.58
2022-12-31T01:40:29.141Z,56.29
2022-12-31T01:42:30.448Z,56.42
2022-12-31T01:44:31.789Z,56.43
2022-12-31T01:46:33.113Z,56.21
2022-12-31T01:48:34.416Z,56.48
2022-12-31T01:50:35.726Z,56.39
2022-12-31T01:52:37.075Z,56.41
2022-12-31T01:54:38.415Z,56.83
2022-12-31T01:56:39.707Z,56.43
2022-12-31T01:58:41.018Z,56.27
2022-12-31T02:00:42.321Z,56.67
2022-12-31T02:02:43.722Z,56.51
2022-12-31T02:04:45.101Z,56.68
2022-12-31T02:06:46.409Z,57.16
2022-12-31T02:08:47.707Z,57.29
2022-12-31T02:10:49.009Z,57.31
2022-12-31T02:12:50.303Z,57.46
2022-12-31T02:14:51.656Z,57.45
2022-12-31T02:16:53.141Z,57.49
2022-12-31T02:18:56.268Z,58.02
2022-12-31T02:20:57.650Z,58.18
2022-12-31T02:22:59.014Z,58.04
2022-12-31T02:25:00.590Z,58.09
2022-12-31T02:27:01.984Z,58.55
2022-12-31T02:29:03.306Z,58.68
2022-12-31T02:31:04.651Z,58.16
2022-12-31T02:33:05.998Z,58.39
2022-12-31T02:35:07.334Z,58.60
2022-12-31T02:37:08.634Z,58.65
2022-12-31T02:39:09.947Z,59.07
2022-12-31T02:41:11.280Z,58.86
2022-12-31T02:43:12.575Z,59.47
2022-12-31T02:45:13.867Z,59.28
2022-12-31T02:47:15.167Z,59.67
2022-12-31T02:49:16.467Z,59.54
2022-12-31T02:51:17.797Z,59.61
2022-12-31T02:53:19.123Z,59.85
2022-12-31T02:55:20.462Z,59.72
2022-12-31T02:57:21.750Z,60.46
2022-12-31T02:59:41.586Z,59.71
2022-12-31T03:02:01.719Z,59.68
2022-12-31T03:04:23.302Z,59.65
2022-12-31T03:06:24.642Z,59.65
2022-12-31T03:08:25.990Z,60.11
2022-12-31T03:10:27.399Z,60.10
2022-12-31T03:12:47.639Z,59.68
2022-12-31T03:14:49.085Z,59.25
2022-12-31T03:16:50.395Z,59.45
2022-12-31T03:19:10.405Z,59.20
2022-12-31T03:21:30.387Z,58.81
2022-12-31T03:23:31.729Z,58.91
2022-12-31T03:25:33.068Z,58.50
2022-12-31T03:27:34.358Z,58.72
2022-12-31T03:29:35.654Z,58.63
2022-12-31T03:31:38.217Z,58.95
2022-12-31T03:33:39.631Z,58.36
2022-12-31T03:35:40.938Z,58.64
2022-12-31T03:37:42.278Z,58.32
2022-12-31T03:39:43.599Z,58.76
2022-12-31T03:41:44.895Z,58.78
2022-12-31T03:43:46.401Z,58.82
2022-12-31T03:45:47.758Z,58.88
2022-12-31T03:47:49.089Z,59.20
2022-12-31T03:49:50.446Z,58.87
2022-12-31T03:51:51.745Z,58.96
2022-12-31T03:53:53.048Z,59.37
2022-12-31T03:55:54.351Z,59.03
2022-12-31T03:57:55.767Z,59.54
2022-12-31T03:59:57.131Z,59.11
2022-12-31T04:01:58.608Z,59.14
2022-12-31T04:03:59.959Z,59.29
2022-12-31T04:06:01.283Z,59.36
2022-12-31T04:08:03.050Z,59.30
2022-12-31T04:10:04.371Z,59.79
2022-12-31T04:12:05.668Z,59.55
2022-12-31T04:14:06.969Z,59.71
2022-12-31T04:16:08.306Z,59.59
2022-12-31T04:18:09.652Z,60.09
2022-12-31T04:20:10.964Z,60.18
2022-12-31T04:22:12.293Z,60.03
2022-12-31T04:24:13.624Z,59.95
2022-12-31T04:26:14.918Z,59.69
2022-12-31T04:28:16.347Z,60.18
2022-12-31T04:30:17.694Z,59.54
2022-12-31T04:32:18.993Z,59.63
2022-12-31T04:34:20.286Z,60.05
2022-12-31T04:36:21.590Z,59.32
2022-12-31T04:38:22.896Z,59.60
2022-12-31T04:40:24.306Z,59.71
2022-12-31T04:42:25.618Z,59.05
2022-12-31T04:44:26.967Z,59.19
2022-12-31T04:46:28.288Z,59.62
2022-12-31T04:48:29.623Z,59.20
2022-12-31T04:50:30.964Z,59.37
2022-12-31T04:52:35.771Z,58.91
2022-12-31T04:54:40.003Z,59.35
2022-12-31T04:56:41.353Z,59.49
2022-12-31T04:58:42.691Z,59.13
2022-12-31T05:00:46.072Z,59.63
2022-12-31T05:02:47.557Z,58.99
2022-12-31T05:04:49.060Z,59.00
2022-12-31T05:06:50.467Z,59.57
2022-12-31T05:08:51.821Z,59.46
2022-12-31T05:10:53.112Z,59.76
2022-12-31T05:12:54.450Z,59.16
2022-12-31T05:14:55.822Z,59.02
2022-12-31T05:16:58.367Z,59.13
2022-12-31T05:18:59.706Z,59.52
2022-12-31T05:21:01.046Z,59.12
2022-12-31T05:23:02.376Z,59.22
2022-12-31T05:25:03.728Z,59.06
2022-12-31T05:27:05.017Z,59.60
2022-12-31T05:29:06.312Z,59.13
2022-12-31T05:31:07.705Z,59.81
2022-12-31T05:33:09.044Z,59.51
2022-12-31T05:35:10.409Z,59.05
2022-12-31T05:37:12.143Z,59.05
2022-12-31T05:39:13.475Z,59.13
2022-12-31T05:41:14.775Z,59.28
2022-12-31T05:43:16.078Z,59.08
2022-12-31T05:45:18.467Z,58.96
2022-12-31T05:47:19.799Z,59.07
2022-12-31T05:49:21.129Z,59.06
2022-12-31T05:51:22.418Z,59.59
2022-12-31T05:53:23.962Z,59.72
2022-12-31T05:55:25.400Z,59.19
2022-12-31T05:57:26.686Z,59.10
2022-12-31T05:59:27.989Z,59.66
2022-12-31T06:01:29.335Z,59.14
2022-12-31T06:03:30.730Z,59.17
2022-12-31T06:05:32.044Z,59.48
2022-12-31T06:07:33.352Z,59.54
2022-12-31T06:09:34.706Z,59.53
2022-12-31T06:11:36.020Z,59.42
2022-12-31T06:13:37.381Z,59.50
2022-12-31T06:15:39.524Z,59.89
2022-12-31T06:17:40.935Z,59.62
2022-12-31T06:19:42.236Z,59.81
2022-12-31T06:21:43.529Z,59.93
2022-12-31T06:23:44.845Z,59.55
2022-12-31T06:25:46.138Z,59.79
2022-12-31T06:27:47.483Z,59.92
2022-12-31T06:29:48.816Z,60.02
2022-12-31T06:31:50.115Z,59.85
2022-12-31T06:33:51.424Z,60.02
2022-12-31T06:35:52.720Z,60.02
2022-12-31T06:37:54.078Z,60.08
2022-12-31T06:39:55.427Z,60.32
2022-12-31T06:41:56.718Z,59.94
2022-12-31T06:43:58.067Z,60.22
2022-12-31T06:45:59.363Z,60.44
2022-12-31T06:48:00.663Z,59.83
2022-12-31T06:50:02.000Z,60.25
2022-12-31T06:52:03.310Z,59.74
2022-12-31T06:54:04.622Z,59.78
2022-12-31T06:56:05.994Z,60.04
2022-12-31T06:58:07.286Z,60.10
2022-12-31T07:00:08.607Z,59.93
2022-12-31T07:02:10.010Z,60.08
2022-12-31T07:04:11.351Z,59.83
2022-12-31T07:06:12.656Z,59.82
2022-12-31T07:08:13.993Z,60.33
2022-12-31T07:10:15.327Z,60.32
2022-12-31T07:12:16.625Z,60.32
2022-12-31T07:14:18.056Z,60.49
2022-12-31T07:16:19.423Z,60.69
2022-12-31T07:18:20.778Z,61.34
2022-12-31T07:20:22.139Z,61.31
2022-12-31T07:22:23.500Z,61.53
2022-12-31T07:24:24.840Z,61.46
2022-12-31T07:26:26.218Z,61.32
2022-12-31T07:28:27.552Z,61.21
2022-12-31T07:30:28.877Z,61.39
2022-12-31T07:32:30.301Z,61.36
2022-12-31T07:34:31.639Z,61.07
2022-12-31T07:36:32.976Z,61.17
2022-12-31T07:38:34.277Z,61.33
2022-12-31T07:40:35.675Z,61.48
2022-12-31T07:42:37.063Z,61.44
2022-12-31T07:44:38.572Z,61.14
2022-12-31T07:46:39.892Z,61.36
2022-12-31T07:48:41.291Z,60.88
2022-12-31T07:50:42.638Z,61.07
2022-12-31T07:52:43.939Z,60.79
2022-12-31T07:54:45.282Z,60.29
2022-12-31T07:56:46.615Z,60.72
2022-12-31T07:58:47.955Z,60.75
2022-12-31T08:00:49.322Z,60.75
2022-12-31T08:02:50.789Z,60.14
2022-12-31T08:04:52.145Z,60.56
2022-12-31T08:06:53.443Z,60.36
2022-12-31T08:08:54.816Z,60.51
2022-12-31T08:10:56.150Z,60.51
2022-12-31T08:12:57.466Z,60.49
2022-12-31T08:14:58.759Z,60.48
2022-12-31T08:17:00.059Z,60.48
2022-12-31T08:19:01.364Z,58.32
2022-12-31T08:21:02.777Z,58.23
2022-12-31T08:23:04.091Z,58.41
2022-12-31T08:25:05.399Z,58.04
2022-12-31T08:27:06.773Z,57.59
2022-12-31T08:29:08.074Z,57.98
2022-12-31T08:31:09.395Z,57.35
2022-12-31T08:33:10.748Z,56.61
2022-12-31T08:35:12.280Z,57.03
2022-12-31T08:37:13.757Z,56.79
2022-12-31T08:39:15.126Z,56.45
2022-12-31T08:41:16.539Z,56.81
2022-12-31T08:43:18.129Z,56.86
2022-12-31T08:45:19.531Z,56.91
2022-12-31T08:47:20.833Z,56.96
2022-12-31T08:49:22.129Z,56.72
2022-12-31T08:51:23.414Z,56.82
2022-12-31T08:53:24.718Z,56.72
2022-12-31T08:55:26.047Z,56.63
2022-12-31T08:57:27.385Z,56.97
2022-12-31T08:59:28.684Z,56.72
2022-12-31T09:01:30.037Z,56.58
2022-12-31T09:03:31.358Z,56.73
2022-12-31T09:05:32.696Z,56.93
2022-12-31T09:07:33.994Z,56.96
2022-12-31T09:09:36.346Z,56.90
2022-12-31T09:11:40.761Z,56.88
2022-12-31T09:13:42.059Z,57.03
2022-12-31T09:15:43.352Z,56.61
2022-12-31T09:17:44.924Z,56.57
2022-12-31T09:19:46.271Z,56.80
2022-12-31T09:21:47.655Z,56.41
2022-12-31T09:23:48.963Z,56.93
2022-12-31T09:25:50.281Z,56.38
2022-12-31T09:27:51.603Z,56.70
2022-12-31T09:29:53.563Z,56.49
2022-12-31T09:31:54.919Z,56.51
2022-12-31T09:33:56.290Z,56.61
2022-12-31T09:35:57.600Z,56.57
2022-12-31T09:37:58.934Z,56.64
2022-12-31T09:40:00.261Z,56.58
2022-12-31T09:42:01.576Z,56.52
2022-12-31T09:44:02.904Z,56.43
2022-12-31T09:46:04.276Z,56.74
2022-12-31T09:48:05.635Z,56.57
2022-12-31T09:50:06.982Z,56.67
2022-12-31T09:52:08.341Z,56.41
2022-12-31T09:54:09.638Z,56.21
2022-12-31T09:56:10.941Z,56.40
2022-12-31T09:58:12.290Z,56.71
2022-12-31T10:00:13.607Z,56.34
2022-12-31T10:02:15.070Z,56.60
2022-12-31T10:04:16.491Z,56.37
2022-12-31T10:06:17.788Z,56.59
2022-12-31T10:08:19.107Z,56.41
2022-12-31T10:10:20.408Z,56.36
2022-12-31T10:12:21.706Z,56.67
2022-12-31T10:14:23.035Z,56.85
2022-12-31T10:16:24.389Z,56.37
2022-12-31T10:18:25.735Z,56.69
2022-12-31T10:20:27.079Z,56.38
2022-12-31T10:22:28.411Z,56.60
2022-12-31T10:24:30.339Z,56.36
2022-12-31T10:26:31.641Z,56.21
2022-12-31T10:28:32.931Z,56.10
2022-12-31T10:30:40.035Z,56.34
2022-12-31T10:32:41.375Z,56.55
2022-12-31T10:34:43.556Z,56.49
2022-12-31T10:36:44.848Z,56.25
2022-12-31T10:38:46.178Z,56.61
2022-12-31T10:40:47.515Z,56.27
2022-12-31T10:42:48.861Z,56.44
2022-12-31T10:44:50.192Z,56.49
2022-12-31T10:46:51.529Z,56.16
2022-12-31T10:48:52.929Z,56.52
2022-12-31T10:50:54.223Z,56.29
2022-12-31T10:52:55.549Z,56.73
2022-12-31T10:54:56.835Z,56.21
2022-12-31T10:56:58.183Z,56.19
2022-12-31T10:59:02.245Z,56.48
2022-12-31T11:01:03.626Z,56.83
2022-12-31T11:03:05.137Z,54.94
2022-12-31T11:05:06.547Z,55.15
2022-12-31T11:07:07.869Z,53.90
2022-12-31T11:09:09.206Z,54.37
2022-12-31T11:11:10.506Z,55.55
2022-12-31T11:13:11.844Z,56.14
2022-12-31T11:15:14.248Z,56.45
2022-12-31T11:17:15.559Z,56.26
2022-12-31T11:19:16.884Z,56.69
2022-12-31T11:21:20.562Z,55.97
2022-12-31T11:23:26.003Z,55.72
2022-12-31T11:25:27.575Z,53.89
2022-12-31T11:27:28.879Z,53.29
2022-12-31T11:29:30.272Z,52.61
2022-12-31T11:31:31.660Z,53.84
2022-12-31T11:33:33.025Z,53.04
2022-12-31T11:35:34.311Z,53.91
2022-12-31T11:37:35.648Z,53.58
2022-12-31T11:39:36.939Z,52.88
2022-12-31T11:41:38.239Z,52.96
2022-12-31T11:43:39.617Z,53.79
2022-12-31T11:45:45.653Z,53.88
2022-12-31T11:48:28.551Z,54.90
2022-12-31T11:50:11.294Z,53.94
2022-12-31T11:52:14.302Z,54.48
2022-12-31T11:54:18.433Z,55.18
2022-12-31T11:56:19.741Z,56.03
2022-12-31T11:58:21.131Z,56.58
2022-12-31T12:00:22.440Z,56.40
2022-12-31T12:02:24.655Z,56.73
2022-12-31T12:04:25.977Z,56.49
2022-12-31T12:06:27.346Z,56.77
2022-12-31T12:08:28.836Z,56.70
2022-12-31T12:10:36.070Z,56.32
2022-12-31T12:12:38.024Z,56.29
2022-12-31T12:14:39.382Z,56.56
2022-12-31T12:16:40.720Z,55.93
2022-12-31T12:18:42.094Z,56.30
2022-12-31T12:20:43.427Z,56.78
2022-12-31T12:22:49.471Z,56.13
2022-12-31T12:24:50.920Z,56.13
2022-12-31T12:26:52.216Z,56.02
2022-12-31T12:28:53.566Z,56.51
2022-12-31T12:30:55.014Z,56.36
2022-12-31T12:32:56.369Z,56.20
2022-12-31T12:34:57.654Z,55.93
2022-12-31T12:36:59.122Z,55.93
2022-12-31T12:39:00.468Z,55.79
2022-12-31T12:41:01.756Z,56.07
2022-12-31T12:43:03.187Z,56.01
2022-12-31T12:45:04.539Z,55.69
2022-12-31T12:47:06.045Z,55.11
2022-12-31T12:49:07.462Z,54.21
2022-12-31T12:51:08.992Z,53.91
2022-12-31T12:55:11.696Z,55.19
2022-12-31T12:57:13.001Z,55.88
2022-12-31T12:59:14.425Z,55.90
2022-12-31T13:01:15.884Z,55.92
2022-12-31T13:03:17.707Z,56.05
2022-12-31T13:05:24.391Z,56.90
2022-12-31T13:07:29.132Z,56.88
2022-12-31T13:09:30.449Z,55.30
2022-12-31T13:11:31.823Z,54.55
2022-12-31T13:13:33.212Z,55.02
2022-12-31T13:15:40.424Z,54.05
2022-12-31T13:17:41.718Z,54.04
2022-12-31T13:19:43.067Z,54.14
2022-12-31T13:21:44.351Z,55.30
2022-12-31T13:23:45.646Z,56.04
2022-12-31T13:25:46.981Z,56.35
2022-12-31T13:27:48.289Z,56.77
2022-12-31T13:29:49.667Z,55.51
2022-12-31T13:31:51.116Z,56.62
2022-12-31T13:33:52.557Z,56.90
2022-12-31T13:35:53.934Z,56.50
2022-12-31T13:37:57.809Z,56.61
2022-12-31T13:40:03.048Z,56.56
2022-12-31T13:42:04.365Z,57.08
2022-12-31T13:44:05.719Z,57.26
2022-12-31T13:46:07.118Z,56.95
2022-12-31T13:48:08.479Z,57.42
2022-12-31T13:50:14.388Z,57.09
2022-12-31T13:52:19.150Z,57.39
2022-12-31T13:54:20.466Z,57.77
2022-12-31T13:56:23.929Z,57.45
2022-12-31T13:58:25.268Z,58.00
2022-12-31T14:00:26.693Z,58.00
2022-12-31T14:02:28.219Z,57.69
2022-12-31T14:04:29.663Z,57.67
2022-12-31T14:06:30.999Z,57.29
2022-12-31T14:08:32.292Z,57.37
2022-12-31T14:10:33.623Z,57.08
2022-12-31T14:12:34.915Z,57.03
2022-12-31T14:14:36.261Z,56.98
2022-12-31T14:16:37.614Z,56.96
2022-12-31T14:18:38.957Z,56.83
2022-12-31T14:20:40.263Z,57.19
2022-12-31T14:22:41.561Z,57.05
2022-12-31T14:24:42.887Z,56.21
2022-12-31T14:26:44.229Z,55.22
2022-12-31T14:28:47.133Z,55.40
2022-12-31T14:30:48.551Z,55.32
2022-12-31T14:32:49.859Z,55.92
2022-12-31T14:34:51.160Z,55.95
2022-12-31T14:36:52.462Z,55.98
2022-12-31T14:38:53.764Z,56.22
2022-12-31T14:40:55.112Z,56.56
2022-12-31T14:42:56.732Z,55.64
2022-12-31T14:44:58.045Z,56.10
2022-12-31T14:46:59.511Z,56.42
2022-12-31T14:49:01.033Z,56.35
2022-12-31T14:51:02.416Z,56.56
2022-12-31T14:53:03.715Z,56.50
2022-12-31T14:55:05.036Z,57.28
2022-12-31T14:57:06.326Z,57.36
2022-12-31T14:59:10.625Z,57.20
2022-12-31T15:01:12.018Z,57.60
2022-12-31T15:03:13.416Z,57.21
2022-12-31T15:05:14.771Z,57.36
2022-12-31T15:07:16.080Z,57.07
2022-12-31T15:09:17.428Z,56.10
2022-12-31T15:11:18.755Z,56.03
2022-12-31T15:13:20.047Z,55.40
2022-12-31T15:15:21.397Z,55.63
2022-12-31T15:17:22.731Z,55.82
2022-12-31T15:19:24.023Z,56.21
2022-12-31T15:21:34.312Z,56.22
2022-12-31T15:23:35.675Z,56.09
2022-12-31T15:25:40.791Z,56.15
2022-12-31T15:27:43.968Z,56.18
2022-12-31T15:29:45.293Z,56.14
2022-12-31T15:31:46.591Z,55.85
2022-12-31T15:33:47.924Z,56.08
2022-12-31T15:35:49.261Z,56.63
2022-12-31T15:37:53.620Z,56.82
2022-12-31T15:39:54.960Z,57.49
2022-12-31T15:44:19.294Z,57.62
2022-12-31T15:46:20.653Z,56.89
2022-12-31T15:48:22.196Z,56.73
2022-12-31T15:50:23.874Z,56.39
2022-12-31T15:52:25.176Z,56.47
2022-12-31T15:54:26.486Z,56.58
2022-12-31T15:56:27.826Z,56.17
2022-12-31T15:58:29.130Z,56.64
2022-12-31T16:00:30.473Z,56.66
2022-12-31T16:02:31.873Z,57.39
2022-12-31T16:04:33.671Z,57.91
2022-12-31T16:06:34.982Z,58.13
2022-12-31T16:08:36.384Z,57.90
2022-12-31T16:10:37.712Z,57.57
2022-12-31T16:12:44.392Z,57.54
2022-12-31T16:14:49.019Z,57.64
2022-12-31T16:16:50.324Z,57.65
2022-12-31T16:18:53.004Z,57.88
2022-12-31T16:20:54.489Z,57.71
2022-12-31T16:22:58.684Z,57.60
2022-12-31T16:25:32.431Z,57.62
2022-12-31T16:27:21.294Z,57.78
2022-12-31T16:29:22.598Z,57.45
2022-12-31T16:31:23.972Z,58.31
2022-12-31T16:33:25.286Z,57.81
2022-12-31T16:35:26.627Z,57.17
2022-12-31T16:37:27.933Z,57.40
2022-12-31T16:39:29.270Z,57.51
2022-12-31T16:41:30.603Z,57.38
2022-12-31T16:43:31.903Z,57.01
2022-12-31T16:45:33.256Z,57.05
2022-12-31T16:47:34.565Z,56.96
2022-12-31T16:49:35.902Z,57.18
2022-12-31T16:51:37.234Z,56.79
2022-12-31T16:53:38.529Z,57.07
2022-12-31T16:55:39.861Z,57.00
2022-12-31T16:57:41.190Z,56.96
2022-12-31T16:59:42.530Z,56.79
2022-12-31T17:01:43.930Z,56.77
2022-12-31T17:03:45.371Z,57.05
2022-12-31T17:05:46.707Z,57.26
2022-12-31T17:07:48.058Z,57.27
2022-12-31T17:09:49.382Z,56.96
2022-12-31T17:11:50.970Z,57.06
2022-12-31T17:13:55.447Z,57.28
2022-12-31T17:15:56.887Z,57.33
2022-12-31T17:17:58.258Z,57.83
2022-12-31T17:19:59.555Z,57.69
2022-12-31T17:22:00.889Z,57.91
2022-12-31T17:24:02.234Z,57.76
2022-12-31T17:26:03.521Z,57.94
2022-12-31T17:28:05.419Z,57.75
2022-12-31T17:30:06.747Z,57.68
2022-12-31T17:32:08.122Z,56.76
2022-12-31T17:34:09.461Z,57.10
2022-12-31T17:36:10.767Z,57.27
2022-12-31T17:38:12.063Z,57.00
2022-12-31T17:40:49.474Z,57.06
2022-12-31T17:42:34.663Z,56.88
2022-12-31T17:44:35.953Z,56.94
2022-12-31T17:46:37.277Z,56.94
2022-12-31T17:48:38.622Z,56.58
2022-12-31T17:50:39.916Z,56.70
2022-12-31T17:52:41.247Z,56.58
2022-12-31T17:54:42.584Z,56.63
2022-12-31T17:56:43.895Z,56.71
2022-12-31T17:58:45.225Z,56.67
2022-12-31T18:00:46.553Z,56.60
2022-12-31T18:02:47.991Z,56.75
2022-12-31T18:04:49.324Z,56.98
2022-12-31T18:06:50.676Z,56.62
2022-12-31T18:08:54.863Z,56.57
2022-12-31T18:10:56.175Z,56.54
2022-12-31T18:12:58.894Z,56.54
2022-12-31T18:15:00.274Z,56.73
2022-12-31T18:17:01.579Z,56.70
2022-12-31T18:19:02.881Z,56.92
2022-12-31T18:21:04.208Z,56.45
2022-12-31T18:23:05.508Z,56.37
2022-12-31T18:25:07.444Z,56.79
2022-12-31T18:27:08.768Z,56.68
2022-12-31T18:29:10.107Z,56.50
2022-12-31T18:31:11.427Z,56.69
2022-12-31T18:33:12.860Z,56.35
2022-12-31T18:35:33.230Z,56.47
2022-12-31T18:37:35.498Z,56.45
2022-12-31T18:39:36.836Z,56.63
2022-12-31T18:41:38.137Z,56.45
2022-12-31T18:43:39.434Z,56.35
2022-12-31T18:45:40.954Z,56.39
2022-12-31T18:47:42.290Z,56.31
2022-12-31T18:49:44.958Z,56.72
2022-12-31T18:51:46.286Z,56.66
2022-12-31T18:53:47.594Z,56.47
2022-12-31T18:55:49.010Z,56.66
2022-12-31T18:57:50.376Z,56.26
2022-12-31T18:59:51.718Z,56.25
2022-12-31T19:01:53.133Z,56.68
2022-12-31T19:03:54.517Z,56.62
2022-12-31T19:05:55.835Z,56.40
2022-12-31T19:07:57.199Z,56.21
2022-12-31T19:09:58.814Z,56.25
2022-12-31T19:12:00.178Z,56.24
2022-12-31T19:14:01.477Z,56.27
2022-12-31T19:16:02.915Z,56.19
2022-12-31T19:18:04.318Z,56.62
2022-12-31T19:20:05.768Z,56.30
2022-12-31T19:22:07.307Z,56.09
2022-12-31T19:24:08.611Z,56.42
2022-12-31T19:26:09.914Z,56.20
2022-12-31T19:28:12.100Z,56.25
2022-12-31T19:30:13.427Z,56.50
2022-12-31T19:32:14.830Z,56.51
2022-12-31T19:34:17.361Z,56.53
2022-12-31T19:36:18.673Z,56.16
2022-12-31T19:38:20.037Z,56.13
2022-12-31T19:40:22.268Z,56.26
2022-12-31T19:42:23.634Z,56.47
2022-12-31T19:44:24.986Z,56.24
2022-12-31T19:46:27.722Z,56.54
2022-12-31T19:48:32.969Z,56.46
2022-12-31T19:50:34.567Z,56.44
2022-12-31T19:52:35.900Z,56.27
2022-12-31T19:54:37.236Z,56.49
2022-12-31T19:56:38.549Z,56.31
2022-12-31T19:58:39.842Z,56.53
2022-12-31T20:00:46.697Z,56.37
2022-12-31T20:02:53.163Z,56.20
2022-12-31T20:04:54.725Z,56.35
2022-12-31T20:06:56.048Z,56.43
2022-12-31T20:09:00.555Z,56.53
2022-12-31T20:11:01.891Z,56.08
2022-12-31T20:13:03.217Z,56.27
2022-12-31T20:15:04.559Z,56.52
2022-12-31T20:17:06.024Z,56.48
2022-12-31T20:19:07.373Z,56.80
2022-12-31T20:21:08.746Z,56.41
2022-12-31T20:23:10.119Z,56.26
2022-12-31T20:25:11.502Z,56.72
2022-12-31T20:27:18.314Z,56.35
2022-12-31T20:29:19.967Z,56.45
2022-12-31T20:31:21.303Z,56.21
2022-12-31T20:33:22.727Z,56.59
2022-12-31T20:35:24.099Z,56.35
2022-12-31T20:37:25.439Z,56.26
2022-12-31T20:39:26.774Z,56.47
2022-12-31T20:41:28.105Z,56.50
2022-12-31T20:43:29.448Z,56.60
2022-12-31T20:45:36.682Z,56.30
2022-12-31T20:47:38.095Z,56.42
2022-12-31T20:50:09.897Z,56.63
2022-12-31T20:52:01.041Z,56.58
2022-12-31T20:54:02.643Z,56.33
2022-12-31T20:56:04.022Z,57.04
2022-12-31T20:58:06.236Z,56.53
2022-12-31T21:00:07.627Z,56.47
2022-12-31T21:02:20.962Z,56.66
2022-12-31T21:04:22.968Z,56.41
2022-12-31T21:06:24.451Z,56.76
2022-12-31T21:08:29.700Z,56.34
2022-12-31T21:10:35.831Z,56.66
2022-12-31T21:12:43.546Z,56.25
2022-12-31T21:14:45.130Z,56.58
2022-12-31T21:16:46.515Z,56.32
2022-12-31T21:18:47.849Z,56.49
2022-12-31T21:20:49.149Z,56.76
2022-12-31T21:22:50.494Z,56.92
2022-12-31T21:24:51.846Z,56.87
2022-12-31T21:26:53.155Z,57.22
2022-12-31T21:28:54.479Z,57.03
2022-12-31T21:30:55.851Z,57.19
2022-12-31T21:32:57.250Z,57.58
2022-12-31T21:35:31.430Z,57.42
2022-12-31T21:37:19.914Z,57.51
2022-12-31T21:39:21.233Z,57.30
2022-12-31T21:41:41.188Z,57.24
2022-12-31T21:43:42.529Z,57.51
2022-12-31T21:45:43.823Z,57.17
2022-12-31T21:48:03.828Z,57.06
2022-12-31T21:50:05.121Z,57.09
2022-12-31T21:52:25.016Z,57.05
2022-12-31T21:54:46.650Z,57.04
2022-12-31T21:56:47.999Z,56.97
2022-12-31T21:59:09.293Z,56.70
2022-12-31T22:01:29.256Z,56.95
2022-12-31T22:03:31.862Z,56.95
2022-12-31T22:05:33.305Z,56.84
2022-12-31T22:07:35.194Z,57.03
2022-12-31T22:09:36.502Z,56.75
2022-12-31T22:11:37.837Z,56.94
2022-12-31T22:13:39.195Z,56.91
2022-12-31T22:15:40.566Z,57.03
2022-12-31T22:17:41.988Z,56.97
2022-12-31T22:20:00.891Z,56.84
2022-12-31T22:22:06.236Z,56.71
2022-12-31T22:24:07.597Z,56.60
2022-12-31T22:26:09.015Z,56.79
2022-12-31T22:28:37.605Z,56.93
2022-12-31T22:30:31.653Z,56.96
2022-12-31T22:32:33.035Z,56.72
2022-12-31T22:34:34.340Z,56.71
2022-12-31T22:36:35.683Z,56.79
2022-12-31T22:38:37.041Z,56.81
2022-12-31T22:40:38.523Z,56.50
2022-12-31T22:42:39.860Z,56.82
2022-12-31T22:44:41.160Z,56.60
2022-12-31T22:46:42.599Z,56.83
2022-12-31T22:48:43.949Z,56.88
2022-12-31T22:50:45.298Z,56.57
2022-12-31T22:52:46.704Z,56.57
2022-12-31T22:54:48.039Z,56.70
2022-12-31T22:56:49.340Z,56.25
2022-12-31T22:58:50.643Z,56.40
2022-12-31T23:00:51.935Z,54.77
2022-12-31T23:02:53.326Z,55.48
2022-12-31T23:04:54.674Z,55.60
2022-12-31T23:07:15.938Z,54.96
2022-12-31T23:09:35.818Z,56.21
2022-12-31T23:11:37.133Z,56.42
2022-12-31T23:13:56.903Z,56.67
2022-12-31T23:16:16.734Z,56.79
2022-12-31T23:18:36.799Z,56.83
2022-12-31T23:20:56.663Z,56.50
2022-12-31T23:23:10.033Z,56.46
2022-12-31T23:25:11.358Z,56.39
2022-12-31T23:27:12.663Z,56.58
2022-12-31T23:29:14.009Z,55.54
2022-12-31T23:31:15.423Z,55.48
2022-12-31T23:33:16.867Z,55.73
2022-12-31T23:35:18.207Z,56.14
2022-12-31T23:37:19.544Z,56.06
2022-12-31T23:39:20.838Z,56.52
2022-12-31T23:41:22.141Z,57.08
2022-12-31T23:43:23.447Z,57.98
2022-12-31T23:45:29.565Z,56.46
2022-12-31T23:47:34.011Z,56.33
2022-12-31T23:49:35.396Z,56.66
2022-12-31T23:51:36.752Z,56.89
2022-12-31T23:53:38.140Z,57.13
2022-12-31T23:55:39.471Z,56.73
2022-12-31T23:57:40.818Z,56.98
2022-12-31T23:59:42.111Z,56.84
